sensor_id;sensor_type;location;lat;lon;timestamp;temperature;humidity
20422;DHT22;10370;53.102;18.034;2023-03-01T00:03:56;-4.40;99.90
20422;DHT22;10370;53.102;18.034;2023-03-01T00:09:27;-4.30;99.90
20422;DHT22;10370;53.102;18.034;2023-03-01T00:14:57;-4.30;99.90
20422;DHT22;10370;53.102;18.034;2023-03-01T00:20:34;-4.20;99.90
20422;DHT22;10370;53.102;18.034;2023-03-01T00:26:13;-4.30;99.90
20422;DHT22;10370;53.102;18.034;2023-03-01T00:31:38;-4.40;99.90
20422;DHT22;10370;53.102;18.034;2023-03-01T00:37:04;-4.30;99.90
20422;DHT22;10370;53.102;18.034;2023-03-01T00:42:34;-4.50;99.90
20422;DHT22;10370;53.102;18.034;2023-03-01T00:48:05;-4.60;99.90
20422;DHT22;10370;53.102;18.034;2023-03-01T00:53:40;-4.70;99.90
20422;DHT22;10370;53.102;18.034;2023-03-01T00:59:03;-4.70;99.90
20422;DHT22;10370;53.102;18.034;2023-03-01T01:04:28;-4.60;99.90
20422;DHT22;10370;53.102;18.034;2023-03-01T01:10:03;-4.60;99.90
20422;DHT22;10370;53.102;18.034;2023-03-01T01:21:34;-4.50;99.90
20422;DHT22;10370;53.102;18.034;2023-03-01T01:27:02;-4.70;99.90
20422;DHT22;10370;53.102;18.034;2023-03-01T01:32:27;-4.60;99.90
20422;DHT22;10370;53.102;18.034;2023-03-01T01:38:08;-4.60;99.90
20422;DHT22;10370;53.102;18.034;2023-03-01T01:44:09;-4.70;99.90
20422;DHT22;10370;53.102;18.034;2023-03-01T01:49:39;-4.70;99.90
20422;DHT22;10370;53.102;18.034;2023-03-01T01:55:14;-4.70;99.90
20422;DHT22;10370;53.102;18.034;2023-03-01T02:00:40;-4.80;99.90
20422;DHT22;10370;53.102;18.034;2023-03-01T02:06:20;-4.80;99.90
20422;DHT22;10370;53.102;18.034;2023-03-01T02:12:12;-4.80;99.90
20422;DHT22;10370;53.102;18.034;2023-03-01T02:24:36;-4.80;99.90
20422;DHT22;10370;53.102;18.034;2023-03-01T02:30:04;-4.90;99.90
20422;DHT22;10370;53.102;18.034;2023-03-01T02:35:49;-4.80;99.90
20422;DHT22;10370;53.102;18.034;2023-03-01T02:41:24;-4.70;99.90
20422;DHT22;10370;53.102;18.034;2023-03-01T02:47:01;-4.70;99.90
20422;DHT22;10370;53.102;18.034;2023-03-01T03:04:23;-4.80;99.90
20422;DHT22;10370;53.102;18.034;2023-03-01T03:09:49;-4.80;99.90
20422;DHT22;10370;53.102;18.034;2023-03-01T03:15:54;-4.90;99.90
20422;DHT22;10370;53.102;18.034;2023-03-01T03:21:32;-5.00;99.90
20422;DHT22;10370;53.102;18.034;2023-03-01T03:27:10;-5.00;99.90
20422;DHT22;10370;53.102;18.034;2023-03-01T03:32:36;-5.10;99.90
20422;DHT22;10370;53.102;18.034;2023-03-01T03:38:08;-5.20;99.90
20422;DHT22;10370;53.102;18.034;2023-03-01T03:44:05;-5.20;99.90
20422;DHT22;10370;53.102;18.034;2023-03-01T03:49:43;-5.20;99.90
20422;DHT22;10370;53.102;18.034;2023-03-01T03:55:19;-5.20;99.90
20422;DHT22;10370;53.102;18.034;2023-03-01T04:00:45;-5.10;99.90
20422;DHT22;10370;53.102;18.034;2023-03-01T04:06:11;-5.10;99.90
20422;DHT22;10370;53.102;18.034;2023-03-01T04:11:34;-5.10;99.90
20422;DHT22;10370;53.102;18.034;2023-03-01T04:17:05;-5.10;99.90
20422;DHT22;10370;53.102;18.034;2023-03-01T04:22:32;-5.00;99.90
20422;DHT22;10370;53.102;18.034;2023-03-01T04:27:56;-5.00;99.90
20422;DHT22;10370;53.102;18.034;2023-03-01T04:33:21;-4.90;99.90
20422;DHT22;10370;53.102;18.034;2023-03-01T04:38:47;-4.90;99.90
20422;DHT22;10370;53.102;18.034;2023-03-01T04:44:12;-4.80;99.90
20422;DHT22;10370;53.102;18.034;2023-03-01T04:49:37;-4.70;99.90
20422;DHT22;10370;53.102;18.034;2023-03-01T04:55:13;-4.70;99.90
20422;DHT22;10370;53.102;18.034;2023-03-01T05:07:02;-4.70;99.90
20422;DHT22;10370;53.102;18.034;2023-03-01T05:12:47;-4.70;99.90
20422;DHT22;10370;53.102;18.034;2023-03-01T05:18:14;-4.70;99.90
20422;DHT22;10370;53.102;18.034;2023-03-01T05:23:40;-4.80;99.90
20422;DHT22;10370;53.102;18.034;2023-03-01T05:29:05;-4.80;99.90
20422;DHT22;10370;53.102;18.034;2023-03-01T05:34:39;-4.80;99.90
20422;DHT22;10370;53.102;18.034;2023-03-01T05:40:06;-4.80;99.90
20422;DHT22;10370;53.102;18.034;2023-03-01T05:45:42;-4.80;99.90
20422;DHT22;10370;53.102;18.034;2023-03-01T05:51:20;-4.80;99.90
20422;DHT22;10370;53.102;18.034;2023-03-01T05:56:45;-4.80;99.90
20422;DHT22;10370;53.102;18.034;2023-03-01T06:02:15;-4.70;99.90
20422;DHT22;10370;53.102;18.034;2023-03-01T06:07:46;-4.60;99.90
20422;DHT22;10370;53.102;18.034;2023-03-01T06:13:09;-4.50;99.90
20422;DHT22;10370;53.102;18.034;2023-03-01T06:18:38;-4.30;99.90
20422;DHT22;10370;53.102;18.034;2023-03-01T06:24:06;-4.10;99.90
20422;DHT22;10370;53.102;18.034;2023-03-01T06:29:33;-4.00;99.90
20422;DHT22;10370;53.102;18.034;2023-03-01T06:35:23;-3.80;99.90
20422;DHT22;10370;53.102;18.034;2023-03-01T06:40:55;-3.60;99.90
20422;DHT22;10370;53.102;18.034;2023-03-01T06:46:19;-3.30;99.90
20422;DHT22;10370;53.102;18.034;2023-03-01T06:51:40;-3.10;99.90
20422;DHT22;10370;53.102;18.034;2023-03-01T06:57:01;-2.90;99.90
20422;DHT22;10370;53.102;18.034;2023-03-01T07:02:24;-2.70;99.90
20422;DHT22;10370;53.102;18.034;2023-03-01T07:07:48;-2.60;99.90
20422;DHT22;10370;53.102;18.034;2023-03-01T07:13:10;-2.50;99.90
20422;DHT22;10370;53.102;18.034;2023-03-01T07:18:35;-2.30;99.90
20422;DHT22;10370;53.102;18.034;2023-03-01T07:23:58;-2.10;99.90
20422;DHT22;10370;53.102;18.034;2023-03-01T07:29:21;-2.00;99.90
20422;DHT22;10370;53.102;18.034;2023-03-01T07:34:44;-1.70;99.90
20422;DHT22;10370;53.102;18.034;2023-03-01T07:40:12;-1.50;99.90
20422;DHT22;10370;53.102;18.034;2023-03-01T07:45:35;-1.20;99.90
20422;DHT22;10370;53.102;18.034;2023-03-01T07:51:03;-0.80;99.90
20422;DHT22;10370;53.102;18.034;2023-03-01T07:56:27;-0.60;99.90
20422;DHT22;10370;53.102;18.034;2023-03-01T08:01:50;-0.50;99.90
20422;DHT22;10370;53.102;18.034;2023-03-01T08:07:15;-0.30;99.90
20422;DHT22;10370;53.102;18.034;2023-03-01T08:12:40;-0.10;99.90
20422;DHT22;10370;53.102;18.034;2023-03-01T08:18:02;0.20;99.90
20422;DHT22;10370;53.102;18.034;2023-03-01T08:23:26;0.30;99.90
20422;DHT22;10370;53.102;18.034;2023-03-01T08:28:48;0.60;99.90
20422;DHT22;10370;53.102;18.034;2023-03-01T08:34:15;0.80;99.90
20422;DHT22;10370;53.102;18.034;2023-03-01T08:39:39;1.00;99.90
20422;DHT22;10370;53.102;18.034;2023-03-01T08:45:00;1.10;99.90
20422;DHT22;10370;53.102;18.034;2023-03-01T08:50:21;1.40;99.90
20422;DHT22;10370;53.102;18.034;2023-03-01T08:55:47;1.40;99.90
20422;DHT22;10370;53.102;18.034;2023-03-01T09:01:13;1.50;99.90
20422;DHT22;10370;53.102;18.034;2023-03-01T09:06:39;1.60;99.90
20422;DHT22;10370;53.102;18.034;2023-03-01T09:12:03;1.80;99.90
20422;DHT22;10370;53.102;18.034;2023-03-01T09:17:26;1.80;99.90
20422;DHT22;10370;53.102;18.034;2023-03-01T09:22:52;1.90;99.90
20422;DHT22;10370;53.102;18.034;2023-03-01T09:28:16;2.10;99.90
20422;DHT22;10370;53.102;18.034;2023-03-01T09:33:52;2.40;99.90
20422;DHT22;10370;53.102;18.034;2023-03-01T09:39:19;2.70;99.90
20422;DHT22;10370;53.102;18.034;2023-03-01T09:50:21;3.00;99.90
20422;DHT22;10370;53.102;18.034;2023-03-01T09:55:46;3.00;99.90
20422;DHT22;10370;53.102;18.034;2023-03-01T10:01:32;3.00;99.90
20422;DHT22;10370;53.102;18.034;2023-03-01T10:12:56;3.20;99.90
20422;DHT22;10370;53.102;18.034;2023-03-01T10:18:27;3.40;99.90
20422;DHT22;10370;53.102;18.034;2023-03-01T10:23:52;3.60;99.90
20422;DHT22;10370;53.102;18.034;2023-03-01T10:29:16;3.60;99.90
20422;DHT22;10370;53.102;18.034;2023-03-01T10:34:41;3.90;99.90
20422;DHT22;10370;53.102;18.034;2023-03-01T10:40:06;4.00;99.90
20422;DHT22;10370;53.102;18.034;2023-03-01T10:45:35;4.00;99.90
20422;DHT22;10370;53.102;18.034;2023-03-01T10:56:22;4.20;99.90
20422;DHT22;10370;53.102;18.034;2023-03-01T11:02:02;4.20;99.90
20422;DHT22;10370;53.102;18.034;2023-03-01T11:07:57;4.30;99.90
20422;DHT22;10370;53.102;18.034;2023-03-01T11:13:19;4.50;99.90
20422;DHT22;10370;53.102;18.034;2023-03-01T11:18:43;4.70;99.90
20422;DHT22;10370;53.102;18.034;2023-03-01T11:24:20;4.70;99.90
20422;DHT22;10370;53.102;18.034;2023-03-01T11:35:42;5.10;99.90
20422;DHT22;10370;53.102;18.034;2023-03-01T11:41:37;5.30;99.90
20422;DHT22;10370;53.102;18.034;2023-03-01T11:47:32;5.40;99.90
20422;DHT22;10370;53.102;18.034;2023-03-01T12:15:28;5.90;99.90
20422;DHT22;10370;53.102;18.034;2023-03-01T12:26:47;6.10;99.90
20422;DHT22;10370;53.102;18.034;2023-03-01T12:49:13;6.50;99.90
20422;DHT22;10370;53.102;18.034;2023-03-01T12:54:38;6.80;99.90
20422;DHT22;10370;53.102;18.034;2023-03-01T13:00:27;6.80;99.90
20422;DHT22;10370;53.102;18.034;2023-03-01T13:11:50;6.80;99.90
20422;DHT22;10370;53.102;18.034;2023-03-01T13:17:33;6.60;99.90
20422;DHT22;10370;53.102;18.034;2023-03-01T13:23:07;6.30;99.90
20422;DHT22;10370;53.102;18.034;2023-03-01T13:34:02;6.40;99.90
20422;DHT22;10370;53.102;18.034;2023-03-01T13:39:38;6.50;99.90
20422;DHT22;10370;53.102;18.034;2023-03-01T13:45:03;6.70;99.90
20422;DHT22;10370;53.102;18.034;2023-03-01T13:50:33;6.70;99.90
20422;DHT22;10370;53.102;18.034;2023-03-01T13:56:07;6.60;99.90
20422;DHT22;10370;53.102;18.034;2023-03-01T14:01:34;6.50;99.90
20422;DHT22;10370;53.102;18.034;2023-03-01T14:07:16;6.60;99.90
20422;DHT22;10370;53.102;18.034;2023-03-01T14:12:54;6.50;99.90
20422;DHT22;10370;53.102;18.034;2023-03-01T14:24:56;6.60;99.90
20422;DHT22;10370;53.102;18.034;2023-03-01T14:30:38;6.60;99.90
20422;DHT22;10370;53.102;18.034;2023-03-01T14:36:06;6.50;99.90
20422;DHT22;10370;53.102;18.034;2023-03-01T14:41:31;6.60;99.90
20422;DHT22;10370;53.102;18.034;2023-03-01T14:46:58;6.80;99.90
20422;DHT22;10370;53.102;18.034;2023-03-01T14:52:42;6.60;99.90
20422;DHT22;10370;53.102;18.034;2023-03-01T14:58:18;6.40;99.90
20422;DHT22;10370;53.102;18.034;2023-03-01T15:03:44;6.50;99.90
20422;DHT22;10370;53.102;18.034;2023-03-01T15:09:14;6.60;99.90
20422;DHT22;10370;53.102;18.034;2023-03-01T15:14:45;6.60;99.90
20422;DHT22;10370;53.102;18.034;2023-03-01T15:20:24;6.70;99.90
20422;DHT22;10370;53.102;18.034;2023-03-01T15:25:52;6.30;99.90
20422;DHT22;10370;53.102;18.034;2023-03-01T15:36:58;6.10;99.90
20422;DHT22;10370;53.102;18.034;2023-03-01T15:47:55;5.80;99.90
20422;DHT22;10370;53.102;18.034;2023-03-01T15:53:22;5.70;99.90
20422;DHT22;10370;53.102;18.034;2023-03-01T15:58:48;5.60;99.90
20422;DHT22;10370;53.102;18.034;2023-03-01T16:04:16;5.50;99.90
20422;DHT22;10370;53.102;18.034;2023-03-01T16:09:49;5.30;99.90
20422;DHT22;10370;53.102;18.034;2023-03-01T16:15:33;5.20;99.90
20422;DHT22;10370;53.102;18.034;2023-03-01T16:21:00;5.00;99.90
20422;DHT22;10370;53.102;18.034;2023-03-01T16:26:24;4.80;99.90
20422;DHT22;10370;53.102;18.034;2023-03-01T16:31:53;4.60;99.90
20422;DHT22;10370;53.102;18.034;2023-03-01T16:37:17;4.40;99.90
20422;DHT22;10370;53.102;18.034;2023-03-01T16:42:45;4.10;99.90
20422;DHT22;10370;53.102;18.034;2023-03-01T16:48:06;3.90;99.90
20422;DHT22;10370;53.102;18.034;2023-03-01T16:53:32;3.70;99.90
20422;DHT22;10370;53.102;18.034;2023-03-01T16:58:57;3.60;99.90
20422;DHT22;10370;53.102;18.034;2023-03-01T17:04:24;3.40;99.90
20422;DHT22;10370;53.102;18.034;2023-03-01T17:09:48;3.20;99.90
20422;DHT22;10370;53.102;18.034;2023-03-01T17:15:15;2.90;99.90
20422;DHT22;10370;53.102;18.034;2023-03-01T17:20:38;2.80;99.90
20422;DHT22;10370;53.102;18.034;2023-03-01T17:26:02;2.60;99.90
20422;DHT22;10370;53.102;18.034;2023-03-01T17:31:35;2.50;99.90
20422;DHT22;10370;53.102;18.034;2023-03-01T17:36:58;2.40;99.90
20422;DHT22;10370;53.102;18.034;2023-03-01T17:42:24;2.20;99.90
20422;DHT22;10370;53.102;18.034;2023-03-01T17:47:45;2.00;99.90
20422;DHT22;10370;53.102;18.034;2023-03-01T17:53:10;1.90;99.90
20422;DHT22;10370;53.102;18.034;2023-03-01T17:58:34;1.70;99.90
20422;DHT22;10370;53.102;18.034;2023-03-01T18:03:58;1.50;99.90
20422;DHT22;10370;53.102;18.034;2023-03-01T18:09:21;1.40;99.90
20422;DHT22;10370;53.102;18.034;2023-03-01T18:14:51;1.20;99.90
20422;DHT22;10370;53.102;18.034;2023-03-01T18:20:26;1.10;99.90
20422;DHT22;10370;53.102;18.034;2023-03-01T18:25:56;0.90;99.90
20422;DHT22;10370;53.102;18.034;2023-03-01T18:31:24;0.80;99.90
20422;DHT22;10370;53.102;18.034;2023-03-01T18:42:37;0.50;99.90
20422;DHT22;10370;53.102;18.034;2023-03-01T18:48:05;0.30;99.90
20422;DHT22;10370;53.102;18.034;2023-03-01T18:53:29;0.30;99.90
20422;DHT22;10370;53.102;18.034;2023-03-01T18:58:54;0.20;99.90
20422;DHT22;10370;53.102;18.034;2023-03-01T19:04:18;0.10;99.90
20422;DHT22;10370;53.102;18.034;2023-03-01T19:09:42;0.10;99.90
20422;DHT22;10370;53.102;18.034;2023-03-01T19:15:08;0.00;99.90
20422;DHT22;10370;53.102;18.034;2023-03-01T19:20:31;-0.10;99.90
20422;DHT22;10370;53.102;18.034;2023-03-01T19:26:00;0.00;99.90
20422;DHT22;10370;53.102;18.034;2023-03-01T19:31:26;0.30;99.90
20422;DHT22;10370;53.102;18.034;2023-03-01T19:36:54;0.70;99.90
20422;DHT22;10370;53.102;18.034;2023-03-01T19:42:17;0.80;99.90
20422;DHT22;10370;53.102;18.034;2023-03-01T19:47:46;0.80;99.90
20422;DHT22;10370;53.102;18.034;2023-03-01T19:53:13;0.30;99.90
20422;DHT22;10370;53.102;18.034;2023-03-01T19:58:41;-0.10;99.90
20422;DHT22;10370;53.102;18.034;2023-03-01T20:04:05;-0.30;99.90
20422;DHT22;10370;53.102;18.034;2023-03-01T20:09:29;-0.40;99.90
20422;DHT22;10370;53.102;18.034;2023-03-01T20:14:56;-0.60;99.90
20422;DHT22;10370;53.102;18.034;2023-03-01T20:20:20;-0.70;99.90
20422;DHT22;10370;53.102;18.034;2023-03-01T20:26:15;-0.70;99.90
20422;DHT22;10370;53.102;18.034;2023-03-01T20:31:38;-0.70;99.90
20422;DHT22;10370;53.102;18.034;2023-03-01T20:37:05;-0.70;99.90
20422;DHT22;10370;53.102;18.034;2023-03-01T20:42:32;-0.80;99.90
20422;DHT22;10370;53.102;18.034;2023-03-01T20:48:01;-1.00;99.90
20422;DHT22;10370;53.102;18.034;2023-03-01T20:53:26;-1.00;99.90
20422;DHT22;10370;53.102;18.034;2023-03-01T20:59:04;-1.20;99.90
20422;DHT22;10370;53.102;18.034;2023-03-01T21:04:31;-1.30;99.90
20422;DHT22;10370;53.102;18.034;2023-03-01T21:10:00;-1.30;99.90
20422;DHT22;10370;53.102;18.034;2023-03-01T21:15:26;-1.30;99.90
20422;DHT22;10370;53.102;18.034;2023-03-01T21:20:49;-1.30;99.90
20422;DHT22;10370;53.102;18.034;2023-03-01T21:26:18;-1.40;99.90
20422;DHT22;10370;53.102;18.034;2023-03-01T21:31:44;-1.40;99.90
20422;DHT22;10370;53.102;18.034;2023-03-01T21:37:09;-1.60;99.90
20422;DHT22;10370;53.102;18.034;2023-03-01T21:42:37;-1.70;99.90
20422;DHT22;10370;53.102;18.034;2023-03-01T21:48:07;-1.80;99.90
20422;DHT22;10370;53.102;18.034;2023-03-01T21:53:33;-1.80;99.90
20422;DHT22;10370;53.102;18.034;2023-03-01T21:58:59;-1.90;99.90
20422;DHT22;10370;53.102;18.034;2023-03-01T22:04:30;-1.90;99.90
20422;DHT22;10370;53.102;18.034;2023-03-01T22:10:03;-1.90;99.90
20422;DHT22;10370;53.102;18.034;2023-03-01T22:15:28;-1.90;99.90
20422;DHT22;10370;53.102;18.034;2023-03-01T22:20:54;-2.00;99.90
20422;DHT22;10370;53.102;18.034;2023-03-01T22:26:38;-2.10;99.90
20422;DHT22;10370;53.102;18.034;2023-03-01T22:32:05;-2.40;99.90
20422;DHT22;10370;53.102;18.034;2023-03-01T22:37:34;-2.60;99.90
20422;DHT22;10370;53.102;18.034;2023-03-01T22:43:02;-2.70;99.90
20422;DHT22;10370;53.102;18.034;2023-03-01T22:54:33;-2.90;99.90
20422;DHT22;10370;53.102;18.034;2023-03-01T22:59:59;-2.90;99.90
20422;DHT22;10370;53.102;18.034;2023-03-01T23:05:56;-2.90;99.90
20422;DHT22;10370;53.102;18.034;2023-03-01T23:11:25;-3.00;99.90
20422;DHT22;10370;53.102;18.034;2023-03-01T23:16:51;-3.00;99.90
20422;DHT22;10370;53.102;18.034;2023-03-01T23:22:18;-2.80;99.90
20422;DHT22;10370;53.102;18.034;2023-03-01T23:27:43;-2.70;99.90
20422;DHT22;10370;53.102;18.034;2023-03-01T23:33:08;-2.40;99.90
20422;DHT22;10370;53.102;18.034;2023-03-01T23:38:34;-2.10;99.90
20422;DHT22;10370;53.102;18.034;2023-03-01T23:44:01;-2.00;99.90
20422;DHT22;10370;53.102;18.034;2023-03-01T23:49:26;-1.90;99.90
20422;DHT22;10370;53.102;18.034;2023-03-01T23:55:01;-1.80;99.90
